• Join FlightAware (Why Join?)
  • Login
  • US Flag 
11:35AM EDT


 

Airport Tracker/Info


-or-


 

Live Flight TrackerFlight Track Log ✈ UAL906 ✈ 28-Sep-2013 ✈ EDDF / FRA - KORD

Flight Track Log - Related Links

Times and Time Zones

All times are in EDT time to prevent confusion due to time zone crossing. See the UAL906 flight status page for this flight to view local times or setup timezone preferences in your user account.

Time Position Orientation Groundspeed Altitude Reporting Facility
EDT Latitude Longitude Course Direction KTS MPH feet Rate Location/Type
07:08AM 50.0360 8.5480 90° East 115 132  Level FlightAware
07:09AM 50.0410 8.5690 70° East 175 201 1,500 Level FlightAware
07:09AM 50.0470 8.5940 69° East 182 209 1,000 2,820 Climbing FlightAware
07:09AM 50.0540 8.6240 70° East 181 208 2,100 2,400 Climbing FlightAware
07:10AM 50.0590 8.6480 72° East 187 215 2,800 2,220 Climbing FlightAware
07:10AM 50.0650 8.6740 70° East 191 220 3,600 1,740 Climbing FlightAware
07:10AM 50.0700 8.6970 71° East 209 241 3,900 960 Climbing FlightAware
07:11AM 50.0870 8.7250 47° Northeast 240 276 4,400 1,500 Climbing FlightAware
07:11AM 50.1040 8.7370 24° Northeast 250 288 4,900 2,460 Climbing FlightAware
07:11AM 50.1250 8.7490 20° North 259 298 5,600 2,220 Climbing FlightAware
07:12AM 50.1490 8.7630 20° North 265 305 6,400 2,280 Climbing FlightAware
07:12AM 50.1660 8.7680 11° North 267 307 6,900 2,280 Climbing FlightAware
07:12AM 50.1860 8.7580 342° North 258 297 7,700 2,400 Climbing FlightAware
07:12AM 50.1910 8.7510 318° Northwest 264 304 7,900 2,400 Climbing FlightAware
07:13AM 50.2000 8.7350 311° West 259 298 8,300 2,400 Climbing FlightAware
07:13AM 50.2150 8.7060 309° West 268 308 9,100 2,400 Climbing FlightAware
07:13AM 50.2300 8.6740 306° West 273 314 9,900 1,260 Climbing FlightAware
07:14AM 50.2630 8.6080 308° West 315 362 10,400 780 Climbing FlightAware
07:15AM 50.3030 8.5300 309° West 360 414 11,000 1,500 Climbing FlightAware
07:15AM 50.3350 8.4700 310° West 366 421 12,200 2,400 Climbing FlightAware
07:16AM 50.3720 8.3970 308° West 366 421 13,600 2,340 Climbing FlightAware
07:16AM 50.4150 8.3130 309° West 373 429 15,100 2,220 Climbing FlightAware
07:17AM 50.4540 8.2370 309° West 384 442 16,400 2,100 Climbing FlightAware
07:17AM 50.4870 8.1680 307° West 390 449 17,400 1,920 Climbing FlightAware
07:18AM 50.5230 8.0890 306° West 393 452 18,500 1,740 Climbing FlightAware
07:19AM 50.5660 7.9950 306° West 398 458 19,600 1,560 Climbing FlightAware
07:19AM 50.6050 7.9100 306° West 405 466 20,500 1,620 Climbing FlightAware
07:20AM 50.6380 7.8370 305° West 414 476 21,400 1,680 Climbing FlightAware
07:20AM 50.6770 7.7530 306° West 418 481 22,300 1,320 Climbing FlightAware
07:21AM 50.7240 7.6490 306° West 426 490 23,100 1,500 Climbing FlightAware
07:22AM 50.7630 7.5630 306° West 424 488 24,200 1,440 Climbing FlightAware
07:22AM 50.7980 7.4850 305° West 434 499 24,700 1,200 Climbing FlightAware
07:23AM 50.8380 7.3980 306° West 442 509 25,500 1,320 Climbing FlightAware
07:23AM 50.8880 7.2850 305° West 447 514 26,400 1,260 Climbing FlightAware
07:24AM 50.9180 7.2040 300° West 447 514 27,000 1,080 Climbing FlightAware
07:24AM 50.9360 7.1100 287° West 454 522 27,500 1,260 Climbing FlightAware
07:25AM 50.9510 6.9980 282° West 451 519 28,400 1,080 Climbing FlightAware
07:26AM 50.9660 6.8850 282° West 459 528 28,800 840 Climbing FlightAware
07:26AM 50.9820 6.7590 281° West 466 536 29,400 900 Climbing FlightAware
07:27AM 50.9980 6.6420 282° West 471 542 29,900 840 Climbing FlightAware
07:27AM 51.0130 6.5210 281° West 474 545 30,400 960 Climbing FlightAware
07:28AM 51.0280 6.4040 282° West 475 547 31,000 960 Climbing FlightAware
07:28AM 51.0450 6.2710 282° West 474 545 31,600 1,140 Climbing FlightAware
07:29AM 51.0600 6.1590 282° West 468 539 32,400 1,260 Climbing FlightAware
07:30AM 51.0740 6.0370 280° West 463 533 33,100 1,020 Climbing FlightAware
07:30AM 51.0880 5.9250 281° West 462 532 33,600 660 Climbing FlightAware
07:31AM 51.1030 5.8070 281° West 463 533 33,900 300 Climbing FlightAware
07:31AM 51.1140 5.7110 280° West 455 524 34,000 60 Climbing FlightAware
07:32AM 51.1260 5.6120 281° West 451 519 34,000  Level FlightAware
07:33AM 51.1430 5.4690 281° West 450 518 34,000  Level FlightAware
07:33AM 51.1560 5.3570 281° West 450 518 34,000  Level FlightAware
07:34AM 51.1700 5.2390 281° West 450 518 34,000  Level FlightAware
07:34AM 51.1820 5.1310 280° West 450 518 34,000 -120 Level FlightAware
07:35AM 51.1913 5.0102 280° West 478 550 33,900  Descending FlightAware UK
07:35AM 51.1950 5.0170 280° West 451 519 34,000 120 Climbing FlightAware
07:35AM 51.2080 4.9070 280° West 451 519 34,000 -180 Level FlightAware
07:35AM 51.2028 4.8901 280° West 1 1 33,900  Descending FlightAware UK
07:36AM 51.2201 4.7995 280° West 480 552 34,000 120 Climbing FlightAware UK
07:36AM 51.2220 4.7830 280° West 451 519 34,000  Level FlightAware
07:37AM 51.2350 4.6640 280° West 451 519 34,000  Level FlightAware
07:37AM 51.2470 4.5540 280° West 452 520 34,000  Level FlightAware
07:38AM 51.2600 4.4350 280° West 453 521 34,000  Level FlightAware
07:38AM 51.2720 4.3320 281° West 453 521 34,000  Level FlightAware
07:39AM 51.2840 4.2170 280° West 454 522 34,000  Level FlightAware
07:40AM 51.2970 4.0940 280° West 455 524 34,000  Level FlightAware
07:40AM 51.3100 3.9720 280° West 455 524 34,000  Level FlightAware
07:41AM 51.3220 3.8610 280° West 456 525 34,000  Level FlightAware
07:41AM 51.3323 3.7518 280° West 478 550 34,000  Level FlightAware UK
07:41AM 51.3340 3.7400 280° West 457 526 34,000  Level FlightAware
07:42AM 51.3440 3.6450 280° West 457 526 34,000  Level FlightAware
07:42AM 51.3570 3.5170 279° West 458 527 34,000  Level FlightAware
07:43AM 51.3670 3.4160 279° West 459 528 34,000  Level FlightAware
07:44AM 51.3800 3.2820 279° West 459 528 34,000  Level FlightAware
07:44AM 51.3920 3.1660 279° West 461 531 34,000  Level FlightAware
07:45AM 51.4030 3.0540 279° West 462 532 34,000  Level FlightAware
07:45AM 51.4144 2.9286 279° West 480 552 34,000  Level FlightAware UK
07:45AM 51.4150 2.9200 279° West 463 533 34,000  Level FlightAware
07:46AM 51.4260 2.8110 279° West 464 534 34,000  Level FlightAware
07:47AM 51.4370 2.6940 279° West 465 535 34,000  Level FlightAware
07:47AM 51.4477 2.5774 278° West 466 536 34,000  Level FlightAware ADS-B
07:48AM 51.4600 2.4480 279° West 466 536 34,000  Level FlightAware
07:48AM 51.4710 2.3230 278° West 468 539 34,000  Level FlightAware
07:49AM 51.4820 2.2030 278° West 469 540 34,000  Level FlightAware
07:49AM 51.4920 2.0860 278° West 471 542 34,000  Level FlightAware
07:50AM 51.5030 1.9620 278° West 472 543 34,000  Level FlightAware
07:51AM 51.5130 1.8420 278° West 472 543 34,000  Level FlightAware
07:51AM 51.5240 1.7170 278° West 474 545 34,000  Level FlightAware
07:52AM 51.5318 1.6240 278° West 476 548 34,000  Level FlightAware ADS-B (EGHH / BOH)
07:52AM 51.5409 1.5154 278° West 476 548 34,000  Level FlightAware ADS-B
07:53AM 51.5493 1.4131 278° West 477 549 34,000  Level FlightAware ADS-B
07:53AM 51.5577 1.3114 278° West 478 550 34,000  Level FlightAware ADS-B
07:54AM 51.5690 1.1715 277° West 479 551 34,000  Level FlightAware ADS-B
07:54AM 51.5777 1.0614 277° West 479 551 34,000  Level FlightAware ADS-B
07:55AM 51.5891 0.9167 277° West 479 551 34,000  Level FlightAware ADS-B
07:56AM 51.5987 0.7922 277° West 480 552 34,000  Level FlightAware ADS-B
07:57AM 51.6138 0.5932 277° West 479 551 34,000  Level FlightAware ADS-B
07:57AM 51.6220 0.4820 277° West 479 551 34,000  Level FlightAware
07:58AM 51.6304 0.3688 277° West 486 559 34,000  Level FlightAware UK
07:58AM 51.6300 0.3710 277° West 480 552 34,000  Level FlightAware
07:58AM 51.6310 0.3604 279° West 479 551 34,000  Level FlightAware ADS-B (EGDM)
07:58AM 51.6382 0.2615 277° West 481 554 34,000  Level FlightAware ADS-B (EGDM)
07:59AM 51.6406 0.1137 272° West 482 555 34,000  Level FlightAware ADS-B (EGDM)
07:59AM 51.6375 0.0722 263° West 481 554 34,000  Level FlightAware ADS-B (EGWE)
07:59AM 51.6271 -0.0319 261° West 482 555 34,000  Level FlightAware ADS-B (EGWE)
08:00AM 51.6169 -0.1233 260° West 482 555 34,000  Level FlightAware ADS-B (EGDM)
08:01AM 51.6036 -0.2753 262° West 483 556 34,000  Level FlightAware ADS-B (EGDM)
08:01AM 51.6039 -0.3435 270° West 482 555 34,000  Level FlightAware ADS-B (EGDM)
08:02AM 51.6122 -0.4685 276° West 482 555 34,000  Level FlightAware ADS-B (EGDM)
08:02AM 51.6210 -0.5942 276° West 482 555 34,000  Level FlightAware ADS-B (EGWE)
08:03AM 51.6210 -0.5942 276° West 481 554 34,000  Level FlightAware ADS-B (EGWE)
08:03AM 51.6377 -0.8376 276° West 481 554 34,000  Level FlightAware ADS-B (EGWE)
08:04AM 51.6449 -0.9444 276° West 481 554 34,000  Level FlightAware ADS-B (EGDM)
08:05AM 51.6577 -1.1387 276° West 481 554 34,000  Level FlightAware ADS-B (EGDM)
08:05AM 51.6672 -1.2855 276° West 481 554 34,000  Level FlightAware ADS-B (EGDM)
08:06AM 51.6741 -1.3918 276° West 481 554 34,000  Level FlightAware ADS-B (EGDM)
08:06AM 51.6876 -1.4883 283° West 480 552 34,000  Level FlightAware ADS-B (EGDM)
08:06AM 51.6849 -1.4747 108° East 478 550 34,000  Level FlightAware ADS-B (CYOW)
08:07AM 51.6687 -1.3075 99° East 480 552 34,000  Level FlightAware ADS-B (EGXW / WTN)
08:07AM 51.7180 -1.5953 286° West 476 548 34,000  Level FlightAware ADS-B
08:07AM 51.7489 -1.6923 297° West 479 551 34,000  Level FlightAware ADS-B (EGGP / LPL)
08:07AM 51.7538 -1.7078 297° West 475 547 34,000  Level FlightAware ADS-B
08:08AM 51.7825 -1.7973 297° West 479 551 34,000  Level FlightAware ADS-B (EGDX / DGX)
08:09AM 51.8120 -1.8892 297° West 480 552 34,000  Level FlightAware ADS-B (EGDX / DGX)
08:09AM 51.8521 -2.0147 297° West 480 552 34,000  Level FlightAware ADS-B (EGDM)
08:09AM 51.8561 -2.0272 297° West 478 550 34,000  Level FlightAware ADS-B (EGBS)
08:10AM 51.8774 -2.0942 297° West 478 550 34,000  Level FlightAware ADS-B (EGHH / BOH)
08:10AM 51.9004 -2.1667 297° West 482 555 34,000  Level FlightAware ADS-B (EGDX / DGX)
08:10AM 51.9119 -2.2032 297° West 482 555 34,000  Level FlightAware ADS-B (EGDX / DGX)
08:10AM 51.9119 -2.2032 297° West 483 556 34,000  Level FlightAware ADS-B (EGDX / DGX)
08:11AM 51.9559 -2.3427 297° West 483 556 34,000  Level FlightAware ADS-B (EGBS)
08:11AM 51.9119 -2.2032 117° Southeast 483 556 34,000  Level FlightAware ADS-B (EGDX / DGX)
08:11AM 51.9810 -2.4225 297° West 483 556 34,000  Level FlightAware ADS-B (EGDX / DGX)
08:12AM 51.9983 -2.4779 297° West 480 552 34,000  Level FlightAware ADS-B
08:12AM 52.0086 -2.5108 297° West 483 556 34,000  Level FlightAware ADS-B (EGBS)
08:12AM 52.0224 -2.5549 297° West 479 551 34,000  Level FlightAware ADS-B (EGBS)
08:12AM 52.0529 -2.6529 297° West 484 557 34,000  Level FlightAware ADS-B (EGBS)
08:13AM 52.0771 -2.7310 297° West 485 558 34,000  Level FlightAware ADS-B (EGBS)
08:13AM 52.0924 -2.7803 297° West 481 554 34,000  Level FlightAware ADS-B
08:13AM 52.1163 -2.8580 297° West 485 558 34,000  Level FlightAware ADS-B (EGGP / LPL)
08:14AM 52.1411 -2.9388 297° West 483 556 34,000  Level FlightAware ADS-B (EGBS)
08:14AM 52.1546 -2.9829 297° West 486 559 34,000  Level FlightAware ADS-B (EGDX / DGX)
08:14AM 52.1614 -3.0051 297° West 486 559 34,000  Level FlightAware ADS-B (EGDX / DGX)
08:15AM 52.2007 -3.1340 297° West 483 556 34,000  Level FlightAware ADS-B
08:15AM 52.2205 -3.1992 296° West 484 557 34,000  Level FlightAware ADS-B
08:15AM 52.2332 -3.2410 296° West 484 557 34,000  Level FlightAware ADS-B
08:16AM 52.2529 -3.3064 296° West 485 558 34,000  Level FlightAware ADS-B
08:16AM 52.2560 -3.3163 297° West 488 562 34,000  Level FlightAware ADS-B (EGBS)
08:16AM 52.2945 -3.4443 296° West 485 558 34,000  Level FlightAware ADS-B
08:17AM 52.3032 -3.4733 296° West 486 559 34,000  Level FlightAware ADS-B
08:17AM 52.3150 -3.5127 296° West 486 559 34,000  Level FlightAware ADS-B
08:17AM 52.3456 -3.6148 296° West 486 559 34,000  Level FlightAware ADS-B
08:18AM 52.3769 -3.7200 296° West 489 563 34,000  Level FlightAware ADS-B
08:18AM 52.4066 -3.8200 296° West 490 564 34,000  Level FlightAware ADS-B
08:19AM 52.4358 -3.9195 296° West 491 565 34,000  Level FlightAware ADS-B
08:19AM 52.4677 -4.0277 296° West 491 565 34,000  Level FlightAware ADS-B (EGBS)
08:20AM 52.4974 -4.1294 296° West 492 566 34,000  Level FlightAware ADS-B (EGBS)
08:20AM 52.5277 -4.2336 296° West 493 567 34,000  Level FlightAware ADS-B (EGBS)
08:21AM 52.5571 -4.3350 295° West 493 567 34,000  Level FlightAware ADS-B (EGBS)
08:21AM 52.5863 -4.4360 295° West 494 568 34,000  Level FlightAware ADS-B (EGBS)
08:22AM 52.6157 -4.5383 295° West 494 568 34,000  Level FlightAware ADS-B (EGGP / LPL)
08:23AM 52.6534 -4.6698 295° West 496 571 34,000  Level FlightAware ADS-B (EGBS)
08:23AM 52.6838 -4.7772 295° West 496 571 34,000  Level FlightAware ADS-B (EGGP / LPL)
08:24AM 52.7121 -4.8769 295° West 497 572 34,000  Level FlightAware ADS-B (EGBS)
08:24AM 52.6948 -4.8157 115° Southeast 497 572 34,000  Level FlightAware ADS-B
08:25AM 52.7970 -5.1791 295° West 497 572 34,000  Level FlightAware ADS-B
08:26AM 52.8310 -5.3020 295° West 496 571 34,000  Level FlightAware
08:26AM 52.8176 -5.2530 114° Southeast 496 571 34,000 -120 Level FlightAware ADS-B (EGGP / LPL)
08:26AM 52.8792 -5.4747 114° Southeast 486 559 33,900  Descending FlightAware UK
08:27AM 52.8874 -5.5052 114° Southeast 496 571 34,000  Climbing FlightAware ADS-B
08:27AM 52.9190 -5.6194 114° Southeast 488 562 33,900  Descending FlightAware UK
08:27AM 52.9319 -5.6678 114° Southeast 496 571 34,000 60 Climbing FlightAware ADS-B
08:28AM 52.9660 -5.7920 295° West 494 568 34,000  Level FlightAware
08:28AM 52.9924 -5.8903 294° West 495 570 34,000  Level FlightAware ADS-B
08:29AM 53.0264 -6.0159 294° West 494 568 34,000  Level FlightAware ADS-B
08:30AM 53.0618 -6.1481 294° West 494 568 34,000  Level FlightAware ADS-B
08:30AM 53.0900 -6.2537 294° West 494 568 34,000  Level FlightAware ADS-B
08:31AM 53.1193 -6.3638 294° West 495 570 34,000  Level FlightAware ADS-B
08:31AM 53.1477 -6.4710 294° West 496 571 34,000  Level FlightAware ADS-B
08:32AM 53.1733 -6.5684 294° West 497 572 34,000  Level FlightAware ADS-B
08:32AM 53.2042 -6.6864 294° West 497 572 34,000  Level FlightAware ADS-B
08:33AM 53.2293 -6.7829 294° West 498 573 34,000  Level FlightAware ADS-B (EIDW / DUB)
08:33AM 53.2631 -6.9129 294° West 498 573 34,000  Level FlightAware ADS-B
08:34AM 53.2900 -7.0167 294° West 488 562 34,000  Level FlightAware UK
08:34AM 53.2812 -6.9832 294° West 497 572 34,000  Level FlightAware ADS-B
08:34AM 53.3241 -7.1500 293° West 497 572 34,000  Level FlightAware ADS-B
08:35AM 53.3522 -7.2604 293° West 497 572 34,000  Level FlightAware ADS-B
08:36AM 53.3850 -7.3910 293° West 495 570 34,000  Level FlightAware
08:36AM 53.3976 -7.4392 294° West 495 570 34,000 -180 Level FlightAware ADS-B
08:36AM 53.4297 -7.5656 294° West 488 562 33,900  Descending FlightAware UK
08:37AM 53.4321 -7.5761 294° West 495 570 34,000 120 Climbing FlightAware ADS-B
08:37AM 53.4594 -7.6853 293° West 493 567 34,000  Level FlightAware ADS-B
08:38AM 53.5046 -7.8669 293° West 494 568 34,000  Level FlightAware ADS-B
08:38AM 53.5312 -7.9742 293° West 495 570 34,000  Level FlightAware ADS-B
08:39AM 53.5577 -8.0821 292° West 494 568 34,000 -120 Level FlightAware ADS-B
08:39AM 53.5867 -8.2004 292° West 484 557 33,900  Descending FlightAware UK
08:40AM 53.5922 -8.2235 292° West 494 568 34,000 120 Climbing FlightAware ADS-B
08:40AM 53.6192 -8.3343 292° West 495 570 34,000 -120 Level FlightAware ADS-B
08:41AM 53.6695 -8.5412 292° West 488 562 33,900  Descending FlightAware UK
08:41AM 53.6694 -8.5423 292° West 495 570 34,000  Climbing FlightAware ADS-B
08:42AM 53.6950 -8.6484 292° West 486 559 33,900  Descending FlightAware UK
08:42AM 53.6950 -8.6500 292° West 492 566 34,000 120 Climbing FlightAware
08:42AM 53.7260 -8.7780 292° West 492 566 34,000  Level FlightAware
08:43AM 53.7550 -8.9030 291° West 492 566 34,000  Level FlightAware
08:43AM 53.7850 -9.0300 292° West 493 567 34,000  Level FlightAware
08:44AM 53.8210 -9.1820 292° West 492 566 34,000  Level FlightAware
08:45AM 53.8490 -9.3040 291° West 492 566 34,000  Level FlightAware
08:45AM 53.8730 -9.4090 291° West 491 565 34,000  Level FlightAware
08:46AM 53.9100 -9.5690 291° West 490 564 34,000  Level FlightAware
08:47AM 53.9420 -9.7080 291° West 489 563 34,000  Level FlightAware
08:47AM 53.9710 -9.8340 291° West 489 563 34,000  Level FlightAware
08:48AM 54.0010 -9.9710 290° West 485 558 34,000  Level FlightAware
08:48AM 54.0360 -10.1260 291° West 484 557 34,000  Level FlightAware
08:49AM 54.0640 -10.2530 291° West 484 557 34,000  Level FlightAware
08:50AM 54.0920 -10.3790 291° West 484 557 34,000 120 Level FlightAware
08:50AM 54.1190 -10.5010 291° West 483 556 34,200 420 Climbing FlightAware
08:51AM 54.1460 -10.6250 290° West 486 559 34,500 480 Climbing FlightAware
08:51AM 54.1740 -10.7520 291° West 489 563 34,800 480 Climbing FlightAware
08:52AM 54.2020 -10.8810 290° West 488 562 35,100 480 Climbing FlightAware
08:53AM 54.2280 -11.0030 290° West 488 562 35,400 480 Climbing FlightAware
08:53AM 54.2670 -11.1860 290° West 487 560 35,800 420 Climbing FlightAware
08:54AM 54.2920 -11.3090 289° West 484 557 36,000 120 Climbing FlightAware
08:55AM 54.3180 -11.4290 290° West 484 557 36,000  Level FlightAware
08:55AM 54.3450 -11.5620 289° West 478 550 36,000  Level FlightAware
08:56AM 54.3710 -11.6870 290° West 477 549 36,000  Level FlightAware
08:56AM 54.4040 -11.8480 289° West 474 545 36,000  Level FlightAware
08:57AM 54.4300 -11.9720 290° West 473 544 36,000  Level FlightAware
08:58AM 54.4560 -12.0990 289° West 473 544 36,000  Level FlightAware
08:59AM 54.4930 -12.2820 289° West 473 544 36,000  Level FlightAware
08:59AM 54.5180 -12.4120 288° West 472 543 36,000  Level FlightAware
09:00AM 54.5380 -12.5220 287° West 472 543 36,000  Level FlightAware
09:00AM 54.5690 -12.6660 290° West 471 542 36,000  Level FlightAware
09:01AM 54.5930 -12.7890 289° West 471 542 36,000  Level FlightAware
09:01AM 54.6170 -12.9160 288° West 465 535 36,000  Level FlightAware
09:02AM 54.6400 -13.0340 289° West 460 529 36,000  Level FlightAware
09:03AM 54.6720 -13.1970 289° West 456 525 36,000  Level FlightAware
09:03AM 54.6930 -13.3100 288° West 454 522 36,000  Level FlightAware
09:04AM 54.7130 -13.4250 287° West 454 522 36,000  Level FlightAware
09:05AM 54.7310 -13.5250 287° West 454 522 36,000  Level FlightAware
09:05AM 54.7500 -13.6320 287° West 454 522 36,000  Level FlightAware
09:06AM 54.7690 -13.7380 287° West 454 522 36,000  Level FlightAware
09:06AM 54.7870 -13.8450 286° West 454 522 36,000  Level FlightAware
09:07AM 54.8060 -13.9520 287° West 454 522 36,000  Level FlightAware
09:08AM 54.8250 -14.0580 287° West 454 522 36,000  Level FlightAware
09:08AM 54.8440 -14.1680 287° West 454 522 36,000  Level FlightAware
09:09AM 54.8640 -14.2780 288° West 454 522 36,000  Level FlightAware
09:09AM 54.8820 -14.3850 286° West 454 522 36,000  Level FlightAware
09:10AM 54.9010 -14.4910 287° West 454 522 36,000  Level FlightAware
09:11AM 54.9200 -14.5980 287° West 454 522 36,000  Level FlightAware
09:11AM 54.9460 -14.7470 287° West 454 522 36,000  Level FlightAware
09:12AM 54.9650 -14.8570 287° West 454 522 36,000  Level FlightAware
09:13AM 54.9840 -14.9640 287° West 454 522 36,000  Level FlightAware
09:13AM 55.0030 -15.0710 287° West 454 522 36,000  Level FlightAware
09:16AM 55.1059 -15.5274 292° West  Level FlightAware Approximate
09:17AM 55.1521 -15.7356 291° West  Level FlightAware Approximate
09:18AM 55.1979 -15.9443 291° West  Level FlightAware Approximate
09:19AM 55.2434 -16.1534 291° West  Level FlightAware Approximate
09:20AM 55.2886 -16.3631 291° West  Level FlightAware Approximate
09:21AM 55.3333 -16.5732 291° West  Level FlightAware Approximate
09:22AM 55.3778 -16.7838 290° West  Level FlightAware Approximate
09:23AM 55.4218 -16.9949 290° West  Level FlightAware Approximate
09:24AM 55.4655 -17.2064 290° West  Level FlightAware Approximate
09:25AM 55.5088 -17.4184 290° West  Level FlightAware Approximate
09:26AM 55.5518 -17.6308 290° West  Level FlightAware Approximate
09:27AM 55.5943 -17.8438 290° West  Level FlightAware Approximate
09:28AM 55.6366 -18.0572 289° West  Level FlightAware Approximate
09:29AM 55.6784 -18.2710 289° West  Level FlightAware Approximate
09:30AM 55.7199 -18.4853 289° West  Level FlightAware Approximate
09:31AM 55.7610 -18.7001 289° West  Level FlightAware Approximate
09:32AM 55.8017 -18.9153 289° West  Level FlightAware Approximate
09:33AM 55.8420 -19.1310 289° West  Level FlightAware Approximate
09:34AM 55.8820 -19.3470 288° West  Level FlightAware Approximate
09:35AM 55.9216 -19.5636 288° West  Level FlightAware Approximate
09:35AM 56.0000 -20.0000 284° West 458 527 36,000  Level ETMS Enhanced Traffic Management System
09:36AM 55.9608 -19.7806 288° West  Level FlightAware Approximate
09:37AM 56.0004 -20.0028 284° West  Level FlightAware Approximate
09:38AM 56.0309 -20.2246 284° West  Level FlightAware Approximate
09:39AM 56.0611 -20.4467 284° West  Level FlightAware Approximate
09:40AM 56.0908 -20.6692 284° West  Level FlightAware Approximate
09:41AM 56.1831 -21.3299 283° West 458 527 36,000  Level FlightAware Transoceanic
09:42AM 56.2123 -21.5528 283° West 458 527 36,000  Level FlightAware Transoceanic
09:43AM 56.2410 -21.7760 283° West 458 527 36,000  Level FlightAware Transoceanic
09:44AM 56.2693 -21.9995 283° West 458 527 36,000  Level FlightAware Transoceanic
09:45AM 56.2972 -22.2234 283° West 458 527 36,000  Level FlightAware Transoceanic
09:46AM 56.3247 -22.4476 282° West 458 527 36,000  Level FlightAware Transoceanic
09:47AM 56.3518 -22.6721 282° West 458 527 36,000  Level FlightAware Transoceanic
09:48AM 56.3786 -22.8969 282° West 458 527 36,000  Level FlightAware Transoceanic
09:49AM 56.4049 -23.1220 282° West 458 527 36,000  Level FlightAware Transoceanic
09:50AM 56.4307 -23.3475 282° West 458 527 36,000  Level FlightAware Transoceanic
09:51AM 56.4562 -23.5732 281° West 458 527 36,000  Level FlightAware Transoceanic
09:52AM 56.4813 -23.7993 281° West 458 527 36,000  Level FlightAware Transoceanic
09:53AM 56.5060 -24.0256 281° West 458 527 36,000  Level FlightAware Transoceanic
09:54AM 56.5302 -24.2523 281° West 458 527 36,000  Level FlightAware Transoceanic
09:55AM 56.5540 -24.4792 281° West 458 527 36,000  Level FlightAware Transoceanic
09:56AM 56.5774 -24.7064 281° West 458 527 36,000  Level FlightAware Transoceanic
09:57AM 56.6004 -24.9339 280° West 458 527 36,000  Level FlightAware Transoceanic
09:58AM 56.6230 -25.1617 280° West 458 527 36,000  Level FlightAware Transoceanic
09:59AM 56.6452 -25.3897 280° West 458 527 36,000  Level FlightAware Transoceanic
10:00AM 56.6670 -25.6180 280° West 458 527 36,000  Level FlightAware Transoceanic
10:01AM 56.6883 -25.8466 280° West 458 527 36,000  Level FlightAware Transoceanic
10:02AM 56.7092 -26.0754 279° West 458 527 36,000  Level FlightAware Transoceanic
10:03AM 56.7297 -26.3045 279° West 458 527 36,000  Level FlightAware Transoceanic
10:04AM 56.7498 -26.5338 279° West 458 527 36,000  Level FlightAware Transoceanic
10:05AM 56.7695 -26.7633 279° West 458 527 36,000  Level FlightAware Transoceanic
10:06AM 56.7887 -26.9932 279° West 458 527 36,000  Level FlightAware Transoceanic
10:07AM 56.8075 -27.2232 278° West 458 527 36,000  Level FlightAware Transoceanic
10:08AM 56.8259 -27.4534 278° West 458 527 36,000  Level FlightAware Transoceanic
10:09AM 56.8438 -27.6839 278° West 458 527 36,000  Level FlightAware Transoceanic
10:10AM 56.8614 -27.9146 278° West 458 527 36,000  Level FlightAware Transoceanic
10:11AM 56.8785 -28.1456 278° West 458 527 36,000  Level FlightAware Transoceanic
10:12AM 56.8952 -28.3767 277° West 458 527 36,000  Level FlightAware Transoceanic
10:13AM 56.9114 -28.6080 277° West 458 527 36,000  Level FlightAware Transoceanic
10:14AM 56.9273 -28.8395 277° West 458 527 36,000  Level FlightAware Transoceanic
10:15AM 56.9427 -29.0713 277° West 458 527 36,000  Level FlightAware Transoceanic
10:16AM 56.9576 -29.3032 277° West 458 527 36,000  Level FlightAware Transoceanic
10:17AM 56.9722 -29.5353 276° West 458 527 36,000  Level FlightAware Transoceanic
10:18AM 56.9863 -29.7675 276° West 458 527 36,000  Level FlightAware Transoceanic
10:19AM 57.0000 -30.0006 276° West  Level FlightAware Approximate
10:20AM 57.0000 -30.0012 274° West  Level FlightAware Approximate
10:21AM 57.0092 -30.2351 274° West  Level FlightAware Approximate
10:22AM 57.0179 -30.4691 274° West  Level FlightAware Approximate
10:23AM 57.0259 -30.6979 274° West  Level FlightAware Approximate
10:24AM 57.0336 -30.9268 274° West  Level FlightAware Approximate
10:25AM 57.0408 -31.1558 273° West  Level FlightAware Approximate
10:26AM 57.0476 -31.3849 273° West  Level FlightAware Approximate
10:27AM 57.0540 -31.6140 273° West  Level FlightAware Approximate
10:28AM 57.0600 -31.8433 273° West  Level FlightAware Approximate
10:29AM 57.0656 -32.0726 273° West  Level FlightAware Approximate
10:30AM 57.0707 -32.3020 272° West  Level FlightAware Approximate
10:31AM 57.0754 -32.5314 272° West  Level FlightAware Approximate
10:32AM 57.0797 -32.7609 272° West  Level FlightAware Approximate
10:33AM 57.0836 -32.9905 272° West  Level FlightAware Approximate
10:34AM 57.0871 -33.2201 272° West  Level FlightAware Approximate
10:35AM 57.0901 -33.4497 271° West  Level FlightAware Approximate
10:36AM 57.0928 -33.6794 271° West  Level FlightAware Approximate
10:37AM 57.0950 -33.9091 271° West  Level FlightAware Approximate
10:38AM 57.0967 -34.1388 271° West  Level FlightAware Approximate
10:38AM 57.0000 -30.0000 274° West 445 512 36,000  Level ETMS Enhanced Traffic Management System
10:39AM 57.0981 -34.3685 271° West  Level FlightAware Approximate
10:40AM 57.0990 -34.5983 271° West  Level FlightAware Approximate
10:41AM 57.0996 -34.8280 270° West  Level FlightAware Approximate
10:42AM 57.0997 -35.0578 270° West  Level FlightAware Approximate
10:43AM 57.0993 -35.2876 270° West  Level FlightAware Approximate
10:44AM 57.0995 -35.2277 270° West 445 512 36,000  Level FlightAware Transoceanic
10:45AM 57.0989 -35.4553 270° West 445 512 36,000  Level FlightAware Transoceanic
10:46AM 57.0978 -35.6830 269° West 445 512 36,000  Level FlightAware Transoceanic
10:47AM 57.0964 -35.9107 269° West 445 512 36,000  Level FlightAware Transoceanic
10:48AM 57.0945 -36.1383 269° West 445 512 36,000  Level FlightAware Transoceanic
10:49AM 57.0923 -36.3659 269° West 445 512 36,000  Level FlightAware Transoceanic
10:50AM 57.0896 -36.5935 269° West 445 512 36,000  Level FlightAware Transoceanic
10:51AM 57.0865 -36.8210 268° West 445 512 36,000  Level FlightAware Transoceanic
10:52AM 57.0830 -37.0485 268° West 445 512 36,000  Level FlightAware Transoceanic
10:53AM 57.0791 -37.2760 268° West 445 512 36,000  Level FlightAware Transoceanic
10:54AM 57.0747 -37.5034 268° West 445 512 36,000  Level FlightAware Transoceanic
10:55AM 57.0700 -37.7307 268° West 445 512 36,000  Level FlightAware Transoceanic
10:56AM 57.0648 -37.9580 268° West 445 512 36,000  Level FlightAware Transoceanic
10:57AM 57.0593 -38.1852 267° West 445 512 36,000  Level FlightAware Transoceanic
10:58AM 57.0533 -38.4124 267° West 445 512 36,000  Level FlightAware Transoceanic
10:58AM 57.0667 -38.0167 266° West 440 506 36,000  Level Gander Center
10:59AM 57.0469 -38.6394 267° West 445 512 36,000  Level FlightAware Transoceanic
10:59AM 57.0500 -38.2500 263° West 450 518 36,000  Level Gander Center
11:00AM 57.0401 -38.8664 267° West 445 512 36,000  Level FlightAware Transoceanic
11:00AM 57.0500 -38.4667 270° West 450 518 36,000  Level Gander Center
11:01AM 57.0329 -39.0933 267° West 445 512 36,000  Level FlightAware Transoceanic
11:01AM 57.0333 -38.7000 263° West 450 518 36,000  Level Gander Center
11:02AM 57.0253 -39.3201 266° West 445 512 36,000  Level FlightAware Transoceanic
11:02AM 57.0500 -38.9167 278° West 450 518 36,000  Level Gander Center
11:03AM 57.0173 -39.5469 266° West 445 512 36,000  Level FlightAware Transoceanic
11:03AM 57.0333 -39.1500 263° West 460 529 36,000  Level Gander Center
11:04AM 57.0333 -39.4167 270° West 460 529 36,000  Level Gander Center
11:05AM 57.0167 -39.6333 262° West 460 529 36,000  Level Gander Center
11:06AM 57.0000 -39.8667 263° West 460 529 36,000  Level Gander Center
11:07AM 56.9833 -40.1000 263° West 460 529 36,000  Level Gander Center
11:08AM 56.9833 -40.3333 270° West 470 541 36,000  Level Gander Center
11:09AM 56.9667 -40.5500 262° West 470 541 36,000  Level Gander Center
11:10AM 56.9500 -40.7833 263° West 470 541 36,000  Level Gander Center
11:11AM 56.9333 -41.0500 264° West 470 541 36,000  Level Gander Center
11:12AM 56.9167 -41.2667 262° West 470 541 36,000  Level Gander Center
11:13AM 56.9000 -41.5000 263° West 470 541 36,000  Level Gander Center
11:14AM 56.9000 -41.7333 270° West 470 541 36,000  Level Gander Center
11:15AM 56.8667 -41.9667 255° West 480 552 36,000  Level Gander Center
11:16AM 56.8500 -42.2167 263° West 480 552 36,000  Level Gander Center
11:17AM 56.8333 -42.4500 263° West 480 552 36,000  Level Gander Center
11:18AM 56.8167 -42.6833 263° West 480 552 36,000  Level Gander Center
11:19AM 56.8000 -42.9333 263° West 480 552 36,000  Level Gander Center
11:20AM 56.7833 -43.1667 263° West 480 552 36,000  Level Gander Center
11:21AM 56.7500 -43.4000 255° West 480 552 36,000  Level Gander Center
11:22AM 56.7333 -43.6500 263° West 480 552 36,000  Level Gander Center
11:23AM 56.7167 -43.8833 263° West 480 552 36,000  Level Gander Center
11:24AM 56.7000 -44.1167 263° West 480 552 36,000  Level Gander Center
11:25AM 56.6833 -44.3667 263° West 480 552 36,000  Level Gander Center
11:26AM 56.6500 -44.5833 254° West 480 552 36,000  Level Gander Center
11:27AM 56.6167 -44.8167 256° West 480 552 36,000  Level Gander Center
11:28AM 56.6000 -45.0833 264° West 480 552 36,000  Level Gander Center
11:29AM 56.5833 -45.3000 262° West 470 541 36,000  Level Gander Center
11:30AM 56.5500 -45.5333 256° West 470 541 36,000  Level Gander Center
11:31AM 56.5333 -45.7500 262° West 470 541 36,000  Level Gander Center
11:32AM 56.5000 -45.9833 256° West 470 541 36,000  Level Gander Center
11:33AM 56.4833 -46.2333 263° West 470 541 36,000  Level Gander Center
11:34AM 56.4500 -46.4667 256° West 470 541 36,000  Level Gander Center
11:35AM 56.4167 -46.6833 255° West 470 541 36,000  Level Gander Center
11:36AM 56.4000 -46.9167 263° West 470 541 36,000  Level Gander Center
11:37AM 56.3667 -47.1333 255° West 470 541 36,000  Level Gander Center
11:38AM 56.3500 -47.3833 263° West 470 541 36,000  Level Gander Center
11:39AM 56.3167 -47.6167 256° West 470 541 36,000  Level Gander Center
11:40AM 56.3000 -47.8333 262° West 470 541 36,000  Level Gander Center
11:41AM 56.2667 -48.0667 256° West 470 541 36,000  Level Gander Center
11:42AM 56.2167 -48.2833 248° West 470 541 36,000  Level Gander Center
11:44AM 56.1647 -48.7144 258° West  Level FlightAware Approximate
11:51AM 55.9881 -50.2721 266° West  Level FlightAware Approximate
11:52AM 55.9779 -50.4945 265° West  Level FlightAware Approximate
11:53AM 55.9673 -50.7168 265° West  Level FlightAware Approximate
11:54AM 55.9563 -50.9389 265° West  Level FlightAware Approximate
11:55AM 55.9450 -51.1610 265° West  Level FlightAware Approximate
11:56AM 55.9332 -51.3829 265° West  Level FlightAware Approximate
11:57AM 55.9210 -51.6046 264° West  Level FlightAware Approximate
11:58AM 55.9084 -51.8262 264° West  Level FlightAware Approximate
11:59AM 55.8954 -52.0477 264° West  Level FlightAware Approximate
12:00PM 55.8820 -52.2690 264° West  Level FlightAware Approximate
12:01PM 55.8683 -52.4902 264° West  Level FlightAware Approximate
12:02PM 55.8541 -52.7112 264° West  Level FlightAware Approximate
12:02PM 55.8667 -52.9333 263° West 460 529 36,000  Level Gander Center
12:03PM 55.8396 -52.9320 263° West  Level FlightAware Approximate
12:03PM 55.8333 -53.1500 255° West 460 529 36,000  Level Gander Center
12:04PM 55.8246 -53.1527 263° West  Level FlightAware Approximate
12:04PM 55.8167 -53.4000 263° West 470 541 36,000  Level Gander Center
12:05PM 55.8092 -53.3732 263° West  Level FlightAware Approximate
12:06PM 55.7935 -53.5935 263° West  Level FlightAware Approximate
12:06PM 55.8000 -53.8500 266° West 470 541 36,000  Level Gander Center
12:07PM 55.7774 -53.8136 263° West  Level FlightAware Approximate
12:07PM 55.7833 -54.0500 262° West 470 541 36,000  Level Gander Center
12:08PM 55.7667 -54.3000 263° West 470 541 36,000  Level Gander Center
12:10PM 55.7304 -54.6093 258° West  Level FlightAware Approximate
12:17PM 55.5895 -56.1654 262° West  Level FlightAware Approximate
12:17PM 55.5833 -56.3167 249° West 450 518 36,000  Level Gander Center
12:18PM 55.5703 -56.3875 261° West  Level FlightAware Approximate
12:18PM 55.5500 -56.5333 255° West 460 529 36,000  Level Gander Center
12:19PM 55.5507 -56.6094 261° West  Level FlightAware Approximate
12:19PM 55.5167 -56.7333 254° West 460 529 36,000  Level Gander Center
12:20PM 55.5057 -56.8192 249° West  Level Estimated
12:20PM 55.5000 -56.9500 262° West 460 529 36,000  Level Gander Center
12:21PM 55.4604 -57.0286 249° West  Level Estimated
12:21PM 55.4500 -57.1833 249° West 460 529 36,000  Level Gander Center
12:22PM 55.4148 -57.2375 249° West  Level Estimated
12:22PM 55.4000 -57.4000 248° West 460 529 36,000  Level Gander Center
12:23PM 55.3833 -57.6000 262° West 460 529 36,000  Level Gander Center
12:24PM 55.3333 -57.8167 248° West 460 529 36,000  Level Gander Center
12:25PM 55.3000 -58.0500 256° West 460 529 36,000  Level Gander Center
12:26PM 55.2667 -58.2667 255° West 460 529 36,000  Level Gander Center
12:27PM 55.2167 -58.4667 246° West 460 529 36,000  Level Gander Center
12:28PM 55.1833 -58.6833 255° West 460 529 36,000  Level Gander Center
12:29PM 55.1500 -58.8833 254° West 460 529 36,000  Level Gander Center
12:30PM 55.1000 -59.1167 250° West 460 529 36,000  Level Gander Center
12:31PM 55.0667 -59.3333 255° West 450 518 36,000  Level Gander Center
12:32PM 55.0167 -59.5333 247° West 450 518 36,000  Level Gander Center
12:33PM 54.9833 -59.7333 254° West 450 518 36,000  Level Gander Center
12:34PM 54.9500 -59.9500 255° West 440 506 36,000  Level Gander Center
12:35PM 54.9167 -60.1500 254° West 440 506 36,000  Level Gander Center
12:36PM 54.8667 -60.3500 247° West 440 506 36,000  Level Gander Center
12:37PM 54.8333 -60.5333 253° West 440 506 36,000  Level Gander Center
12:38PM 54.7833 -60.7667 250° West 440 506 36,000  Level Gander Center
12:39PM 54.7333 -60.9333 243° Southwest 450 518 36,000  Level Gander Center
12:40PM 54.7000 -61.1333 254° West 450 518 36,000  Level Gander Center
12:41PM 54.6500 -61.3667 250° West 450 518 36,000  Level Gander Center
12:42PM 54.6167 -61.5500 253° West 460 529 36,000  Level Gander Center
12:43PM 54.5667 -61.7667 248° West 460 529 36,000  Level Gander Center
12:44PM 54.5167 -61.9667 247° West 460 529 36,000  Level Gander Center
12:45PM 54.4833 -62.1667 254° West 460 529 36,000  Level Gander Center
12:46PM 54.4333 -62.3667 247° West 460 529 36,000  Level Gander Center
12:47PM 54.3667 -62.6000 244° Southwest 460 529 36,000  Level Gander Center
12:48PM 54.3333 -62.8000 254° West 460 529 36,000  Level Gander Center
12:49PM 54.2833 -63.0000 247° West 470 541 36,000  Level Gander Center
12:50PM 54.2333 -63.2000 247° West 470 541 36,000  Level Gander Center
12:51PM 54.2000 -63.4000 254° West 460 529 36,000  Level Gander Center
12:52PM 54.1500 -63.6167 249° West 460 529 36,000  Level Gander Center
12:53PM 54.0833 -63.8167 240° Southwest 470 541 36,000  Level Gander Center
12:54PM 54.0500 -64.0500 256° West 460 529 36,000  Level Gander Center
12:55PM 54.0000 -64.2333 245° Southwest 460 529 36,000  Level Gander Center
12:56PM 53.9333 -64.4333 241° Southwest 460 529 36,000  Level Gander Center
12:57PM 53.9000 -64.6333 254° West 460 529 36,000  Level Gander Center
12:58PM 53.8500 -64.8500 249° West 460 529 36,000  Level Gander Center
12:59PM 53.8000 -65.0500 247° West 460 529 36,000  Level Gander Center
01:00PM 53.7500 -65.2167 243° Southwest 460 529 36,000  Level Gander Center
01:01PM 53.7000 -65.4333 249° West 450 518 36,000  Level Gander Center
01:02PM 53.6667 -65.5333 241° Southwest 450 518 36,000  Level Montreal Center
01:03PM 53.6167 -65.7500 249° West 450 518 36,000  Level Montreal Center
01:04PM 53.5500 -65.9333 239° Southwest 460 529 36,000  Level Montreal Center
01:05PM 53.5000 -66.1167 245° Southwest 450 518 36,000  Level Montreal Center
01:06PM 53.4500 -66.3333 249° West 450 518 36,000  Level Montreal Center
01:07PM 53.4000 -66.5167 245° Southwest 450 518 36,000  Level Montreal Center
01:08PM 53.3500 -66.7000 246° West 450 518 36,000  Level Montreal Center
01:09PM 53.3000 -66.9000 247° West 480 552 36,000  Level Montreal Center
01:10PM 53.2500 -67.0833 246° West 460 529 36,000  Level Montreal Center
01:11PM 53.1833 -67.3000 243° Southwest 460 529 36,000  Level Montreal Center
01:12PM 53.1333 -67.5000 247° West 460 529 36,000  Level Montreal Center
01:13PM 53.0833 -67.6833 246° West 450 518 36,000  Level Montreal Center
01:14PM 53.0333 -67.8667 246° West 470 541 36,000  Level Montreal Center
01:15PM 52.9500 -68.0667 235° Southwest 460 529 36,000  Level Montreal Center
01:16PM 52.9167 -68.2500 253° West 450 518 36,000  Level Montreal Center
01:17PM 52.8667 -68.4500 248° West 460 529 36,000  Level Montreal Center
01:18PM 52.8167 -68.6333 246° West 460 529 36,000  Level Montreal Center
01:19PM 52.7333 -68.8333 236° Southwest 460 529 36,000  Level Montreal Center
01:20PM 52.6833 -69.0333 248° West 470 541 36,000  Level Montreal Center
01:21PM 52.6167 -69.2167 239° Southwest 470 541 36,000  Level Montreal Center
01:22PM 52.5667 -69.4167 248° West 470 541 36,000  Level Montreal Center
01:23PM 52.5167 -69.6000 246° West 460 529 36,000  Level Montreal Center
01:24PM 52.4500 -69.8000 241° Southwest 460 529 36,000  Level Montreal Center
01:25PM 52.4000 -70.0000 248° West 460 529 36,000  Level Montreal Center
01:26PM 52.3333 -70.1667 237° Southwest 460 529 36,000  Level Montreal Center
01:27PM 52.2833 -70.3667 248° West 470 541 36,000  Level Montreal Center
01:28PM 52.2000 -70.5500 233° Southwest 470 541 36,000  Level Montreal Center
01:29PM 52.1500 -70.7500 248° West 480 552 36,000  Level Montreal Center
01:30PM 52.0833 -70.9500 242° Southwest 480 552 36,000  Level Montreal Center
01:31PM 52.0333 -71.1500 248° West 480 552 36,000  Level Montreal Center
01:32PM 51.9667 -71.3500 242° Southwest 490 564 36,000  Level Montreal Center
01:33PM 51.9000 -71.5167 237° Southwest 480 552 36,000  Level Montreal Center
01:34PM 51.8333 -71.7333 244° Southwest 480 552 36,000  Level Montreal Center
01:35PM 51.7667 -71.9167 240° Southwest 490 564 36,000  Level Montreal Center
01:36PM 51.7167 -72.1000 246° West 490 564 36,000  Level Montreal Center
01:37PM 51.6333 -72.3000 236° Southwest 490 564 36,000  Level Montreal Center
01:38PM 51.5667 -72.5000 242° Southwest 490 564 36,000  Level Montreal Center
01:39PM 51.5167 -72.7000 248° West 490 564 36,000  Level Montreal Center
01:40PM 51.4333 -72.8833 234° Southwest 490 564 36,000  Level Montreal Center
01:41PM 51.3667 -73.0833 242° Southwest 490 564 36,000  Level Montreal Center
01:42PM 51.3000 -73.2667 240° Southwest 490 564 36,000  Level Montreal Center
01:43PM 51.2333 -73.4667 242° Southwest 490 564 36,000  Level Montreal Center
01:44PM 51.1667 -73.6500 240° Southwest 490 564 36,000  Level Montreal Center
01:45PM 51.1000 -73.8500 242° Southwest 490 564 36,000  Level Montreal Center
01:46PM 51.0333 -74.0333 240° Southwest 490 564 36,000  Level Montreal Center
01:47PM 50.9500 -74.2333 237° Southwest 490 564 36,000  Level Montreal Center
01:48PM 50.8833 -74.4167 240° Southwest 490 564 36,000  Level Montreal Center
01:49PM 50.8167 -74.6000 240° Southwest 490 564 36,000  Level Montreal Center
01:50PM 50.7500 -74.7667 238° Southwest 480 552 36,000  Level Montreal Center
01:51PM 50.6833 -74.9500 240° Southwest 480 552 36,000  Level Montreal Center
01:52PM 50.6167 -75.1500 242° Southwest 480 552 36,000  Level Montreal Center
01:53PM 50.5500 -75.3333 240° Southwest 480 552 36,000  Level Montreal Center
01:54PM 50.4833 -75.4833 235° Southwest 480 552 36,000  Level Montreal Center
01:55PM 50.4000 -75.6833 237° Southwest 470 541 36,000  Level Montreal Center
01:56PM 50.3333 -75.8667 240° Southwest 470 541 36,000  Level Montreal Center
01:57PM 50.2667 -76.0500 240° Southwest 470 541 36,000  Level Montreal Center
01:58PM 50.2000 -76.2000 235° Southwest 470 541 36,000  Level Montreal Center
01:59PM 50.1333 -76.3833 240° Southwest 470 541 36,000  Level Montreal Center
02:00PM 50.0500 -76.5667 235° Southwest 470 541 36,000  Level Montreal Center
02:01PM 49.9833 -76.7167 235° Southwest 470 541 36,000  Level Montreal Center
02:02PM 49.9000 -76.9000 235° Southwest 470 541 36,000  Level Montreal Center
02:03PM 49.8333 -77.0833 241° Southwest 470 541 36,000  Level Montreal Center
02:04PM 49.7667 -77.2667 241° Southwest 470 541 36,000  Level Montreal Center
02:05PM 49.7000 -77.4167 236° Southwest 470 541 36,000  Level Montreal Center
02:06PM 49.6333 -77.6000 241° Southwest 470 541 36,000  Level Montreal Center
02:07PM 49.5500 -77.7833 235° Southwest 480 552 36,000  Level Montreal Center
02:08PM 49.4667 -77.9667 235° Southwest 480 552 36,000 120 Level Montreal Center
02:09PM 49.4000 -78.1167 236° Southwest 470 541 36,300 360 Climbing Montreal Center
02:10PM 49.3333 -78.2833 239° Southwest 470 541 36,800 480 Climbing Montreal Center
02:11PM 49.2500 -78.4667 235° Southwest 490 564 37,300 480 Climbing Montreal Center
02:12PM 49.1833 -78.6167 236° Southwest 490 564 37,800 300 Climbing Montreal Center
02:13PM 49.1167 -78.8167 243° Southwest 490 564 38,000 60 Climbing Montreal Center
02:14PM 49.0333 -78.9667 230° Southwest 490 564 38,000  Level Montreal Center
02:14PM 49.0000 -79.0167 225° Southwest 490 564 38,000  Level Toronto Center
02:15PM 48.9167 -79.2000 235° Southwest 490 564 38,000  Level Toronto Center
02:16PM 48.8333 -79.3833 235° Southwest 490 564 38,000  Level Toronto Center
02:17PM 48.7667 -79.5500 239° Southwest 490 564 38,000  Level Toronto Center
02:18PM 48.6833 -79.7000 230° Southwest 490 564 38,000  Level Toronto Center
02:19PM 48.6167 -79.8500 236° Southwest 480 552 38,000  Level Toronto Center
02:25PM 48.2020 -80.7840 236° Southwest 483 556 38,000  Level FlightAware
02:25PM 48.1440 -80.9050 234° Southwest 482 555 38,000  Level FlightAware
02:26PM 48.1040 -80.9880 234° Southwest 482 555 38,000  Level FlightAware
02:27PM 48.0630 -81.0730 234° Southwest 482 555 38,000  Level FlightAware
02:27PM 48.0250 -81.1510 234° Southwest 482 555 38,000  Level FlightAware
02:28PM 47.9850 -81.2330 234° Southwest 482 555 38,000  Level FlightAware
02:28PM 47.9470 -81.3110 234° Southwest 482 555 38,000  Level FlightAware
02:29PM 47.8620 -81.4920 235° Southwest 482 555 38,000  Level FlightAware
02:29PM 47.8160 -81.5860 234° Southwest 482 555 38,000  Level FlightAware
02:30PM 47.7750 -81.6690 234° Southwest 481 554 38,000  Level FlightAware
02:31PM 47.7230 -81.7740 234° Southwest 478 550 38,000  Level FlightAware
02:31PM 47.6840 -81.8520 233° Southwest 478 550 38,000  Level FlightAware
02:32PM 47.6220 -81.9570 229° Southwest 470 541 38,000  Level FlightAware
02:33PM 47.5600 -82.0360 221° Southwest 474 545 38,000  Level FlightAware
02:33PM 47.5000 -82.1100 220° Southwest 473 544 38,000  Level FlightAware
02:34PM 47.4370 -82.1870 220° Southwest 474 545 38,000  Level FlightAware
02:34PM 47.3730 -82.2640 219° Southwest 475 547 38,000  Level FlightAware
02:35PM 47.3220 -82.3270 220° Southwest 476 548 38,000  Level FlightAware
02:36PM 47.2550 -82.4080 219° Southwest 477 549 38,000  Level FlightAware
02:36PM 47.1940 -82.4830 220° Southwest 477 549 38,000  Level FlightAware
02:37PM 47.1430 -82.5450 220° Southwest 478 550 38,000  Level FlightAware
02:37PM 47.0750 -82.6270 219° Southwest 478 550 38,000  Level FlightAware
02:38PM 47.0270 -82.6850 219° Southwest 479 551 38,000  Level FlightAware
02:38PM 46.9540 -82.7720 219° Southwest 479 551 38,000  Level FlightAware
02:39PM 46.8910 -82.8470 219° Southwest 479 551 38,000  Level FlightAware
02:40PM 46.8440 -82.9030 219° Southwest 479 551 38,000  Level FlightAware
02:40PM 46.7810 -82.9780 219° Southwest 479 551 38,000  Level FlightAware
02:41PM 46.7140 -83.0570 219° Southwest 480 552 38,000  Level FlightAware
02:41PM 46.6550 -83.1270 219° Southwest 479 551 38,000  Level FlightAware
02:42PM 46.5950 -83.1980 219° Southwest 479 551 38,000  Level FlightAware
02:43PM 46.5340 -83.2700 219° Southwest 479 551 38,000  Level FlightAware
02:43PM 46.4720 -83.3420 219° Southwest 477 549 38,000  Level FlightAware
02:44PM 46.4200 -83.4030 219° Southwest 475 547 38,000  Level FlightAware
02:44PM 46.3570 -83.4770 219° Southwest 475 547 38,000  Level FlightAware
02:45PM 46.2980 -83.5400 216° Southwest 476 548 38,000  Level FlightAware
02:45PM 46.2300 -83.5990 211° Southwest 479 551 38,000  Level FlightAware
02:46PM 46.1540 -83.6530 206° Southwest 480 552 38,000  Level FlightAware
02:47PM 46.0830 -83.7010 205° Southwest 480 552 38,000  Level FlightAware
02:47PM 46.0190 -83.7430 205° Southwest 479 551 38,000  Level FlightAware
02:48PM 45.9540 -83.7860 205° Southwest 478 550 38,000  Level FlightAware
02:48PM 45.8750 -83.8380 205° Southwest 477 549 38,000  Level FlightAware
02:49PM 45.8020 -83.8870 205° Southwest 477 549 38,000  Level FlightAware
02:50PM 45.7380 -83.9280 204° Southwest 478 550 38,000  Level FlightAware
02:50PM 45.6680 -83.9740 205° Southwest 478 550 38,000  Level FlightAware
02:51PM 45.5930 -84.0230 205° Southwest 478 550 38,000  Level FlightAware
02:51PM 45.5280 -84.0650 204° Southwest 477 549 38,000  Level FlightAware
02:52PM 45.4520 -84.1140 204° Southwest 478 550 38,000  Level FlightAware
02:52PM 45.3930 -84.1520 204° Southwest 477 549 38,000  Level FlightAware
02:53PM 45.3090 -84.2060 204° Southwest 477 549 38,000  Level FlightAware
02:54PM 45.2350 -84.2550 205° Southwest 475 547 38,000  Level FlightAware
02:54PM 45.1620 -84.3010 204° Southwest 473 544 38,000  Level FlightAware
02:55PM 45.0920 -84.3460 204° Southwest 471 542 38,000  Level FlightAware
02:55PM 45.0310 -84.3850 204° Southwest 470 541 38,000  Level FlightAware
02:56PM 44.9540 -84.4340 204° Southwest 470 541 38,000  Level FlightAware
02:57PM 44.8850 -84.4780 204° Southwest 470 541 38,000  Level FlightAware
02:57PM 44.8210 -84.5180 204° Southwest 470 541 38,000  Level FlightAware
02:58PM 44.7270 -84.5770 204° Southwest 470 541 38,000  Level FlightAware
02:58PM 44.6660 -84.6160 204° Southwest 470 541 38,000  Level FlightAware
02:59PM 44.5930 -84.6620 204° Southwest 470 541 38,000  Level FlightAware
03:00PM 44.5200 -84.7070 204° Southwest 470 541 38,000  Level FlightAware
03:00PM 44.4570 -84.7470 204° Southwest 470 541 38,000  Level FlightAware
03:01PM 44.3820 -84.7930 204° Southwest 477 549 38,000  Level FlightAware
03:01PM 44.3100 -84.8380 204° Southwest 479 551 38,000  Level FlightAware
03:02PM 44.2390 -84.8820 204° Southwest 469 540 38,000  Level FlightAware
03:03PM 44.1740 -84.9220 204° Southwest 466 536 38,000  Level FlightAware
03:03PM 44.1050 -84.9640 204° Southwest 466 536 38,000  Level FlightAware
03:04PM 44.0340 -85.0080 204° Southwest 466 536 38,000 -720 Level FlightAware
03:04PM 43.9690 -85.0480 204° Southwest 461 531 37,200 -1,980 Descending FlightAware
03:05PM 43.9070 -85.0860 204° Southwest 464 534 35,900 -2,880 Descending FlightAware
03:05PM 43.8460 -85.1250 205° Southwest 473 544 34,200 -2,340 Descending FlightAware
03:06PM 43.7770 -85.1830 211° Southwest 466 536 33,300 -1,260 Descending FlightAware
03:07PM 43.7020 -85.2580 216° Southwest 456 525 32,500 -1,020 Descending FlightAware
03:07PM 43.6450 -85.3140 215° Southwest 447 514 32,000 -480 Descending FlightAware
03:08PM 43.5930 -85.3660 216° Southwest 446 513 32,000  Level FlightAware
03:08PM 43.5310 -85.4250 215° Southwest 448 516 32,000  Level FlightAware
03:09PM 43.4680 -85.4860 215° Southwest 447 514 32,000  Level FlightAware
03:10PM 43.4090 -85.5500 218° Southwest 448 516 32,000 -540 Level FlightAware
03:10PM 43.3630 -85.6150 226° Southwest 443 510 31,400 -1,440 Descending FlightAware
03:10PM 43.3390 -85.6570 232° Southwest 453 521 30,800 -2,100 Descending FlightAware
03:11PM 43.2760 -85.7630 231° Southwest 459 528 29,100 -2,100 Descending FlightAware
03:12PM 43.2280 -85.8450 231° Southwest 449 517 27,900 -1,980 Descending FlightAware
03:12PM 43.1850 -85.9160 230° Southwest 436 502 26,900 -1,800 Descending FlightAware
03:13PM 43.1390 -85.9930 231° Southwest 428 493 25,800 -1,800 Descending FlightAware
03:14PM 43.0920 -86.0720 231° Southwest 422 486 24,700 -1,740 Descending FlightAware
03:14PM 43.0500 -86.1420 231° Southwest 417 480 23,800 -1,680 Descending FlightAware
03:15PM 43.0070 -86.2130 230° Southwest 410 472 22,800 -1,680 Descending FlightAware
03:15PM 42.9700 -86.2760 231° Southwest 405 466 21,900 -1,800 Descending FlightAware
03:16PM 42.9280 -86.3450 230° Southwest 399 459 20,800 -1,860 Descending FlightAware
03:17PM 42.8850 -86.4150 230° Southwest 389 448 19,700 -1,920 Descending FlightAware
03:17PM 42.8460 -86.4790 230° Southwest 382 440 18,600 -1,860 Descending FlightAware
03:18PM 42.8110 -86.5360 230° Southwest 374 430 17,700 -1,740 Descending FlightAware
03:18PM 42.7700 -86.6030 230° Southwest 367 422 16,600 -1,800 Descending FlightAware
03:19PM 42.7310 -86.6670 230° Southwest 362 417 15,500 -1,800 Descending FlightAware
03:19PM 42.6950 -86.7300 232° Southwest 358 412 14,500 -1,800 Descending FlightAware
03:20PM 42.6640 -86.7950 237° Southwest 352 405 13,400 -1,860 Descending FlightAware
03:21PM 42.6320 -86.8620 237° Southwest 346 398 12,400 -1,620 Descending FlightAware
03:21PM 42.6010 -86.9230 235° Southwest 340 391 11,600 -1,320 Descending FlightAware
03:22PM 42.5710 -86.9810 235° Southwest 337 388 10,900 -1,260 Descending FlightAware
03:22PM 42.5410 -87.0390 235° Southwest 333 383 10,200 -1,020 Descending FlightAware
03:23PM 42.5220 -87.0770 236° Southwest 331 381 10,000 -360 Descending FlightAware
03:23PM 42.5080 -87.1050 236° Southwest 329 379 10,000  Level FlightAware
03:23PM 42.4920 -87.1360 235° Southwest 330 380 10,000  Level FlightAware
03:23PM 42.4810 -87.1580 236° Southwest 328 377 10,000  Level FlightAware
03:24PM 42.4600 -87.1990 235° Southwest 300 345 10,000  Level FlightAware
03:24PM 42.4450 -87.2290 236° Southwest 281 323 10,000 -420 Level FlightAware
03:24PM 42.4360 -87.2470 236° Southwest 276 318 9,800 -1,020 Descending FlightAware
03:25PM 42.4190 -87.2790 234° Southwest 268 308 9,400 -1,020 Descending FlightAware
03:25PM 42.4070 -87.3030 236° Southwest 265 305 9,100 -900 Descending FlightAware
03:25PM 42.3970 -87.3270 241° Southwest 267 307 8,900 -840 Descending FlightAware
03:26PM 42.3870 -87.3620 249° West 266 306 8,600 -1,080 Descending FlightAware
03:26PM 42.3820 -87.3810 250° West 265 305 8,300 -1,440 Descending FlightAware
03:26PM 42.3730 -87.4140 250° West 264 304 7,800 -1,380 Descending FlightAware
03:27PM 42.3630 -87.4490 249° West 264 304 7,300 -1,320 Descending FlightAware
03:27PM 42.3570 -87.4710 250° West 262 302 7,000 -540 Descending FlightAware
03:27PM 42.3490 -87.5000 250° West 243 280 7,000  Level FlightAware
03:27PM 42.3440 -87.5100 236° Southwest 232 267 7,000  Level FlightAware
03:28PM 42.3340 -87.5230 224° Southwest 220 253 7,000  Level FlightAware
03:28PM 42.3190 -87.5400 220° Southwest 212 244 7,000  Level FlightAware
03:28PM 42.3080 -87.5530 221° Southwest 209 241 7,000  Level FlightAware
03:29PM 42.2920 -87.5700 218° Southwest 206 237 7,000  Level FlightAware
03:29PM 42.2770 -87.5860 218° Southwest 207 238 7,000  Level FlightAware
03:29PM 42.2670 -87.5970 219° Southwest 208 239 7,000  Level FlightAware
03:29PM 42.2540 -87.6120 221° Southwest 205 236 7,000 -180 Level FlightAware
03:30PM 42.2380 -87.6300 220° Southwest 195 224 6,900 -840 Descending FlightAware
03:30PM 42.2260 -87.6430 219° Southwest 194 223 6,500 -1,380 Descending FlightAware
03:30PM 42.2130 -87.6580 221° Southwest 198 228 6,100 -1,260 Descending FlightAware
03:31PM 42.2030 -87.6690 219° Southwest 205 236 5,800 -960 Descending FlightAware
03:31PM 42.1890 -87.6850 220° Southwest 210 242 5,600 -840 Descending FlightAware
03:31PM 42.1700 -87.7050 218° Southwest 203 234 5,200 -1,140 Descending FlightAware
03:32PM 42.1600 -87.7160 219° Southwest 203 234 4,900 -1,440 Descending FlightAware
03:32PM 42.1460 -87.7330 222° Southwest 209 241 4,400 -1,080 Descending FlightAware
03:32PM 42.1310 -87.7490 218° Southwest 201 231 4,200 -600 Descending FlightAware
03:33PM 42.1150 -87.7670 220° Southwest 180 207 4,000 -540 Descending FlightAware
03:33PM 42.1080 -87.7750 220° Southwest 170 196 3,900 -780 Descending FlightAware
03:33PM 42.0960 -87.7880 219° Southwest 158 182 3,600 -1,020 Descending FlightAware
03:33PM 42.0870 -87.7990 222° Southwest 158 182 3,300 -840 Descending FlightAware
03:34PM 42.0770 -87.8110 222° Southwest 143 165 3,100 -900 Descending FlightAware
03:34PM 42.0660 -87.8220 217° Southwest 149 171 2,700 -1,260 Descending FlightAware
03:35PM 42.0550 -87.8340 219° Southwest 136 157 2,200 -1,200 Descending FlightAware
03:35PM 42.0460 -87.8430 217° Southwest 132 152 1,900 -960 Descending FlightAware
03:35PM 42.0340 -87.8560 219° Southwest 143 165 1,600 -840 Descending FlightAware
03:35PM 42.0270 -87.8640 220° Southwest 138 159 1,400 -840 Descending FlightAware
03:36PM 42.0160 -87.8760 219° Southwest 132 152 1,100 -660 Descending FlightAware
03:36PM 42.0100 -87.8830 221° Southwest 131 151 1,000 -720 Descending FlightAware
03:36PM 42.0000 -87.8940 219° Southwest 133 153 700 -780 Descending FlightAware
03:37PM 41.9930 -87.9010 217° Southwest 132 152 600 -540 Descending FlightAware